Time;durP1;ratioP1;P1;durP2;ratioP2;P2;SDS_P1;SDS_P2;PMS_P1;PMS_P2;Temp;Humidity;BMP_temperature;BMP_pressure;BME280_temperature;BME280_humidity;BME280_pressure;Samples;Min_cycle;Max_cycle;Signal;HPM_P1;HPM_P2
2022/05/10 00:01:40;;;;;;;1999.90;999.90;;;16.90;99.90;;;;;;4942957;29;20031;-96
2022/05/10 00:04:07;;;;;;;1999.90;999.90;;;16.90;99.90;;;;;;4950792;29;20058;-96
2022/05/10 00:06:41;;;;;;;1999.90;999.90;;;16.90;99.90;;;;;;4950513;29;20384;-96
2022/05/10 00:09:08;;;;;;;1999.90;999.90;;;16.80;99.90;;;;;;4953419;29;20170;-96
2022/05/10 00:11:33;;;;;;;1999.90;999.90;;;16.80;99.90;;;;;;4956784;29;20035;-96
2022/05/10 00:13:59;;;;;;;1999.90;999.90;;;16.80;99.90;;;;;;4956324;29;20510;-95
2022/05/10 00:16:25;;;;;;;1999.90;999.90;;;16.80;99.90;;;;;;4956140;29;20390;-95
2022/05/10 00:18:51;;;;;;;1999.90;999.90;;;16.70;99.90;;;;;;4944250;29;20020;-95
2022/05/10 00:21:21;;;;;;;1999.90;999.90;;;16.70;99.90;;;;;;4946362;29;20035;-96
2022/05/10 00:23:46;;;;;;;1999.90;999.90;;;16.70;99.90;;;;;;4956240;29;20469;-95
2022/05/10 00:26:12;;;;;;;1999.90;999.90;;;16.60;99.90;;;;;;4955496;29;20069;-96
2022/05/10 00:28:38;;;;;;;1999.90;999.90;;;16.50;99.90;;;;;;4951530;29;20028;-94
2022/05/10 00:31:05;;;;;;;1999.90;999.90;;;16.50;99.90;;;;;;4956255;29;20086;-95
2022/05/10 00:33:31;;;;;;;1999.90;999.90;;;16.50;99.90;;;;;;4954149;29;20117;-96
2022/05/10 00:35:58;;;;;;;1999.90;999.90;;;16.40;99.90;;;;;;4956227;29;20086;-94
2022/05/10 00:38:36;;;;;;;1999.90;999.90;;;16.40;99.90;;;;;;4938129;29;20048;-96
2022/05/10 00:41:32;;;;;;;1999.90;999.90;;;16.40;99.90;;;;;;4939686;29;20465;-95
2022/05/10 00:44:22;;;;;;;1999.90;999.90;;;16.40;99.90;;;;;;4934943;29;20036;-93
2022/05/10 00:47:32;;;;;;;1999.90;999.90;;;16.50;99.90;;;;;;4949407;29;20035;-95
2022/05/10 00:50:04;;;;;;;1999.90;999.90;;;16.50;99.90;;;;;;4944283;29;20414;-93
2022/05/10 00:52:49;;;;;;;1999.90;999.90;;;16.50;99.90;;;;;;4951681;29;20074;-96
2022/05/10 00:55:30;;;;;;;1999.90;999.90;;;16.50;99.90;;;;;;4955388;29;20109;-96
2022/05/10 00:58:23;;;;;;;1999.90;999.90;;;16.50;99.90;;;;;;4955151;29;20110;-96
2022/05/10 01:00:49;;;;;;;1999.90;999.90;;;16.50;99.90;;;;;;4945527;29;20042;-96
2022/05/10 01:03:24;;;;;;;1999.90;999.90;;;16.50;99.90;;;;;;4937033;29;20144;-96
2022/05/10 01:06:11;;;;;;;1999.90;999.90;;;16.50;99.90;;;;;;4952423;29;20402;-96
2022/05/10 01:08:45;;;;;;;1999.90;999.90;;;16.50;99.90;;;;;;4945373;29;20028;-91
2022/05/10 01:11:15;;;;;;;1999.90;999.90;;;16.40;99.90;;;;;;4945133;29;20034;-96
2022/05/10 01:13:57;;;;;;;1999.90;999.90;;;16.40;99.90;;;;;;4935235;29;20046;-93
2022/05/10 01:16:24;;;;;;;1999.90;999.90;;;16.50;99.90;;;;;;4946306;29;20023;-96
2022/05/10 01:18:51;;;;;;;1999.90;999.90;;;16.40;99.90;;;;;;4942314;29;20027;-95
2022/05/10 01:21:47;;;;;;;1999.90;999.90;;;16.50;99.90;;;;;;4954382;29;20039;-96
2022/05/10 01:24:41;;;;;;;1999.90;999.90;;;16.50;99.90;;;;;;4934006;29;20027;-96
2022/05/10 01:27:28;;;;;;;1999.90;999.90;;;16.50;99.90;;;;;;4956968;28;20032;-92
2022/05/10 01:30:21;;;;;;;1999.90;999.90;;;16.40;99.90;;;;;;4942347;29;20063;-95
2022/05/10 01:35:40;;;;;;;1999.90;999.90;;;16.30;99.90;;;;;;4957350;29;20100;-96
2022/05/10 01:38:16;;;;;;;1999.90;999.90;;;16.30;99.90;;;;;;4951681;29;20027;-96
2022/05/10 01:40:48;;;;;;;1999.90;999.90;;;16.20;99.90;;;;;;4951794;29;20028;-96
2022/05/10 01:43:22;;;;;;;1999.90;999.90;;;16.20;99.90;;;;;;4955767;29;20039;-96
2022/05/10 01:45:57;;;;;;;1999.90;999.90;;;16.10;99.90;;;;;;4954220;29;20509;-96
2022/05/10 01:48:23;;;;;;;1999.90;999.90;;;16.10;99.90;;;;;;4925805;29;20479;-95
2022/05/10 01:50:52;;;;;;;1999.90;999.90;;;16.20;99.90;;;;;;4948449;29;20035;-96
2022/05/10 01:53:25;;;;;;;1999.90;999.90;;;16.20;99.90;;;;;;4947956;29;20510;-96
2022/05/10 01:55:52;;;;;;;;;;;16.30;99.90;;;;;;4949175;29;20027;-96
2022/05/10 01:58:23;;;;;;;1999.90;999.90;;;16.30;99.90;;;;;;4954037;29;19911;-96
2022/05/10 02:00:55;;;;;;;1999.90;999.90;;;16.30;99.90;;;;;;4943005;29;20491;-92
2022/05/10 02:03:45;;;;;;;1999.90;999.90;;;16.30;99.90;;;;;;4957917;29;20019;-96
2022/05/10 02:06:23;;;;;;;1999.90;999.90;;;16.40;99.90;;;;;;4957634;29;20043;-92
2022/05/10 02:09:36;;;;;;;1999.90;999.90;;;16.40;99.90;;;;;;4956009;29;20391;-96
2022/05/10 02:12:16;;;;;;;1999.90;999.90;;;16.40;99.90;;;;;;4937906;29;20046;-96
2022/05/10 02:14:44;;;;;;;1999.90;999.90;;;16.40;99.90;;;;;;4924529;29;20036;-96
2022/05/10 02:17:16;;;;;;;1999.90;999.90;;;16.40;99.90;;;;;;4950808;29;20066;-95
2022/05/10 02:20:00;;;;;;;1999.90;999.90;;;16.50;99.90;;;;;;4940341;29;20063;-96
2022/05/10 02:22:49;;;;;;;1999.90;999.90;;;16.50;99.90;;;;;;4944470;29;20110;-95
2022/05/10 02:25:20;;;;;;;1999.90;999.90;;;16.50;99.90;;;;;;4957501;29;20384;-92
2022/05/10 02:27:53;;;;;;;1999.90;999.90;;;16.60;99.90;;;;;;4956792;29;20372;-94
2022/05/10 02:30:21;;;;;;;;;;;16.50;99.90;;;;;;4942655;29;20032;-96
2022/05/10 02:33:07;;;;;;;1999.90;999.90;;;16.50;99.90;;;;;;4938106;29;19907;-96
2022/05/10 02:35:45;;;;;;;1999.90;999.90;;;16.50;99.90;;;;;;4950172;29;20047;-93
2022/05/10 02:38:15;;;;;;;1999.90;999.90;;;16.50;99.90;;;;;;4938238;29;20028;-96
2022/05/10 02:40:43;;;;;;;1999.90;999.90;;;16.50;99.90;;;;;;4946244;29;20036;-96
2022/05/10 02:43:13;;;;;;;1999.90;999.90;;;16.50;99.90;;;;;;4952849;28;20035;-96
2022/05/10 02:45:39;;;;;;;1999.90;999.90;;;16.40;99.90;;;;;;4956693;29;20482;-96
2022/05/10 02:48:17;;;;;;;1999.90;999.90;;;16.40;99.90;;;;;;4964349;29;20039;-96
2022/05/10 02:50:58;;;;;;;1999.90;999.90;;;16.40;99.90;;;;;;4960116;29;20028;-96
2022/05/10 02:53:32;;;;;;;1999.90;999.90;;;16.40;99.90;;;;;;4975176;23;20133;-74
2022/05/10 02:56:07;;;;;;;1999.90;999.90;;;16.40;99.90;;;;;;4956122;29;20416;-81
2022/05/10 02:58:55;;;;;;;1999.90;999.90;;;16.40;99.90;;;;;;4956344;29;20390;-81
2022/05/10 03:01:50;;;;;;;1999.90;999.90;;;16.40;99.90;;;;;;4944747;29;20074;-74
2022/05/10 03:04:16;;;;;;;1999.90;999.90;;;16.30;99.90;;;;;;4959337;28;20534;-75
2022/05/10 03:06:44;;;;;;;1999.90;999.90;;;16.30;99.90;;;;;;4949732;29;20047;-80
2022/05/10 03:09:11;;;;;;;1999.90;999.90;;;16.20;99.90;;;;;;4954299;29;20106;-75
2022/05/10 03:11:36;;;;;;;1999.90;999.90;;;16.20;99.90;;;;;;4958742;28;20386;-81
2022/05/10 03:14:04;;;;;;;1999.90;999.90;;;16.20;99.90;;;;;;4955574;29;20103;-74
2022/05/10 03:16:29;;;;;;;1999.90;999.90;;;16.10;99.90;;;;;;4956128;29;20020;-81
2022/05/10 03:18:55;;;;;;;1999.90;999.90;;;16.10;99.90;;;;;;4954584;28;20038;-75
2022/05/10 03:21:23;;;;;;;1999.90;999.90;;;16.10;99.90;;;;;;4954061;28;20027;-74
2022/05/10 03:23:49;;;;;;;1999.90;999.90;;;16.00;99.90;;;;;;4959109;29;20050;-78
2022/05/10 03:26:21;;;;;;;1999.90;999.90;;;16.00;99.90;;;;;;4969289;29;20031;-74
2022/05/10 03:28:47;;;;;;;1999.90;999.90;;;16.00;99.90;;;;;;4956030;28;20475;-81
2022/05/10 03:31:15;;;;;;;1999.90;999.90;;;16.00;99.90;;;;;;4959660;28;20038;-74
2022/05/10 03:33:41;;;;;;;1999.90;999.90;;;16.00;99.90;;;;;;4958511;28;20035;-74
2022/05/10 03:36:06;;;;;;;1999.90;999.90;;;16.00;99.90;;;;;;4954110;28;20035;-80
2022/05/10 03:38:33;;;;;;;1999.90;999.90;;;16.00;99.90;;;;;;4955565;29;20136;-74
2022/05/10 03:40:58;;;;;;;1999.90;999.90;;;16.00;99.90;;;;;;4955790;28;20459;-75
2022/05/10 03:43:27;;;;;;;1999.90;999.90;;;16.00;99.90;;;;;;4954944;29;20041;-74
2022/05/10 03:45:53;;;;;;;1999.90;999.90;;;15.90;99.90;;;;;;4961293;28;20027;-81
2022/05/10 03:48:19;;;;;;;1999.90;999.90;;;15.90;99.90;;;;;;4955512;28;20395;-80
2022/05/10 03:50:44;;;;;;;1999.90;999.90;;;15.90;99.90;;;;;;4955112;29;20031;-74
2022/05/10 03:53:10;;;;;;;1999.90;999.90;;;15.90;99.90;;;;;;4955239;29;20049;-74
2022/05/10 03:55:36;;;;;;;1999.90;999.90;;;15.90;99.90;;;;;;4954904;28;20394;-74
2022/05/10 03:58:03;;;;;;;1999.90;999.90;;;15.90;99.90;;;;;;4954422;29;20102;-74
2022/05/10 04:00:29;;;;;;;1999.90;999.90;;;15.90;99.90;;;;;;4947293;29;20518;-81
2022/05/10 04:02:56;;;;;;;1999.90;999.90;;;15.90;99.90;;;;;;4955084;28;20067;-80
2022/05/10 04:05:23;;;;;;;1999.90;999.90;;;15.90;99.90;;;;;;4955351;29;20070;-74
2022/05/10 04:07:50;;;;;;;1999.90;999.90;;;15.90;99.90;;;;;;4954919;29;20386;-75
2022/05/10 04:10:17;;;;;;;1999.90;999.90;;;15.90;99.90;;;;;;4957689;28;20058;-74
2022/05/10 04:12:43;;;;;;;1999.90;999.90;;;15.80;99.90;;;;;;4954733;29;20089;-74
2022/05/10 04:15:14;;;;;;;1999.90;999.90;;;15.80;99.90;;;;;;4954636;29;20031;-80
2022/05/10 04:17:42;;;;;;;1999.90;999.90;;;15.70;99.90;;;;;;4955008;29;20493;-74
2022/05/10 04:20:08;;;;;;;1999.90;999.90;;;15.70;99.90;;;;;;4962199;28;20027;-74
2022/05/10 04:22:34;;;;;;;1999.90;999.90;;;15.60;99.90;;;;;;4955072;29;20019;-74
2022/05/10 04:25:00;;;;;;;1999.90;999.90;;;15.60;99.90;;;;;;4954878;28;20030;-75
2022/05/10 04:27:26;;;;;;;1999.90;999.90;;;15.60;99.90;;;;;;4954926;29;20118;-79
2022/05/10 04:29:51;;;;;;;1999.90;999.90;;;15.60;99.90;;;;;;4955335;29;20031;-79
2022/05/10 04:32:17;;;;;;;1999.90;999.90;;;15.60;99.90;;;;;;4962950;28;20030;-74
2022/05/10 04:34:42;;;;;;;1999.90;999.90;;;15.60;99.90;;;;;;4955403;28;20024;-74
2022/05/10 04:37:08;;;;;;;1999.90;999.90;;;15.60;99.90;;;;;;4957289;28;20098;-74
2022/05/10 04:42:18;;;;;;;1999.90;999.90;;;15.60;99.90;;;;;;4954961;29;20513;-80
2022/05/10 04:44:44;;;;;;;1999.90;999.90;;;15.60;99.90;;;;;;4954902;29;20035;-79
2022/05/10 04:47:10;;;;;;;1999.90;999.90;;;15.70;99.90;;;;;;4960027;28;20450;-75
2022/05/10 04:49:35;;;;;;;1999.90;999.90;;;15.70;99.90;;;;;;4958770;28;20041;-80
2022/05/10 04:52:01;;;;;;;1999.90;999.90;;;15.70;99.90;;;;;;4952433;28;20034;-74
2022/05/10 04:54:27;;;;;;;1999.90;999.90;;;15.70;99.90;;;;;;4952881;29;20019;-80
2022/05/10 04:56:53;;;;;;;1999.90;999.90;;;15.70;99.90;;;;;;4954223;28;20070;-74
2022/05/10 04:59:19;;;;;;;1999.90;999.90;;;15.70;99.90;;;;;;4953850;28;20023;-74
2022/05/10 05:01:48;;;;;;;1999.90;999.90;;;15.70;99.90;;;;;;4948781;29;20074;-74
2022/05/10 05:04:13;;;;;;;1999.90;999.90;;;15.70;99.90;;;;;;4954323;29;20034;-74
2022/05/10 05:06:40;;;;;;;1999.90;999.90;;;15.80;99.90;;;;;;4955736;28;20102;-81
2022/05/10 05:09:07;;;;;;;1999.90;999.90;;;15.90;99.90;;;;;;4957385;29;20567;-80
2022/05/10 05:11:33;;;;;;;1999.90;999.90;;;15.90;99.90;;;;;;4960860;28;20581;-74
2022/05/10 05:13:59;;;;;;;1999.90;999.90;;;16.00;99.90;;;;;;4957757;28;20038;-74
2022/05/10 05:16:24;;;;;;;1999.90;999.90;;;16.00;99.90;;;;;;4958075;29;20053;-74
2022/05/10 05:18:51;;;;;;;1999.90;999.90;;;16.00;99.90;;;;;;4957654;29;20031;-74
2022/05/10 05:21:17;;;;;;;1999.90;999.90;;;15.90;99.90;;;;;;4958014;29;20140;-77
2022/05/10 05:23:43;;;;;;;1999.90;999.90;;;16.00;99.90;;;;;;4958038;29;20133;-81
2022/05/10 05:26:09;;;;;;;1999.90;999.90;;;16.00;99.90;;;;;;4957698;29;20461;-79
2022/05/10 05:28:35;;;;;;;1999.90;999.90;;;16.10;99.90;;;;;;4956586;29;20066;-74
2022/05/10 05:31:02;;;;;;;1999.90;999.90;;;16.10;99.90;;;;;;4960368;28;20030;-74
2022/05/10 05:33:27;;;;;;;1999.90;999.90;;;16.20;99.90;;;;;;4961572;28;20502;-77
2022/05/10 05:35:53;;;;;;;1999.90;999.90;;;16.20;99.90;;;;;;4957288;29;20023;-81
2022/05/10 05:38:19;;;;;;;1999.90;999.90;;;16.20;99.90;;;;;;4956565;28;20031;-75
2022/05/10 05:40:45;;;;;;;1999.90;999.90;;;16.30;99.90;;;;;;4952508;28;20027;-75
2022/05/10 05:43:18;;;;;;;1999.90;999.90;;;16.30;99.90;;;;;;4956255;28;20442;-75
2022/05/10 05:45:44;;;;;;;1999.90;999.90;;;16.30;99.90;;;;;;4961681;28;20106;-80
2022/05/10 05:48:10;;;;;;;1999.90;999.90;;;16.40;99.90;;;;;;4954579;28;20402;-81
2022/05/10 05:50:36;;;;;;;1999.90;999.90;;;16.40;99.90;;;;;;4933654;29;20024;-81
2022/05/10 05:53:01;;;;;;;1999.90;999.90;;;16.40;99.90;;;;;;4955265;28;20050;-81
2022/05/10 05:55:27;;;;;;;1999.90;999.90;;;16.50;99.90;;;;;;4967975;28;20110;-75
2022/05/10 05:57:53;;;;;;;1999.90;999.90;;;16.60;99.90;;;;;;4964701;28;20027;-75
2022/05/10 06:00:22;;;;;;;1999.90;999.90;;;16.70;99.90;;;;;;4955577;28;20029;-74
2022/05/10 06:02:50;;;;;;;1999.90;999.90;;;16.60;99.90;;;;;;4954206;28;20015;-80
2022/05/10 06:05:16;;;;;;;1999.90;999.90;;;16.70;99.90;;;;;;4943908;28;20117;-74
2022/05/10 06:07:42;;;;;;;1999.90;999.90;;;16.60;99.90;;;;;;4949386;28;20027;-81
2022/05/10 06:10:10;;;;;;;1999.90;999.90;;;16.60;99.90;;;;;;4958677;28;20482;-74
2022/05/10 06:12:36;;;;;;;1999.90;999.90;;;16.60;99.90;;;;;;4954752;29;20019;-79
2022/05/10 06:15:08;;;;;;;1999.90;999.90;;;16.70;99.90;;;;;;4948235;28;20487;-80
2022/05/10 06:17:34;;;;;;;1999.90;999.90;;;16.80;99.90;;;;;;4953050;28;20028;-80
2022/05/10 06:20:00;;;;;;;1999.90;999.90;;;16.80;99.90;;;;;;4953786;28;20487;-75
2022/05/10 06:22:25;;;;;;;1999.90;999.90;;;16.80;99.90;;;;;;4953347;28;20027;-74
2022/05/10 06:24:51;;;;;;;1999.90;999.90;;;16.80;99.90;;;;;;4954993;29;20047;-80
2022/05/10 06:27:17;;;;;;;1999.90;999.90;;;16.90;99.90;;;;;;4955435;29;20050;-80
2022/05/10 06:29:44;;;;;;;1999.90;999.90;;;16.90;99.90;;;;;;4954916;29;20066;-75
2022/05/10 06:32:11;;;;;;;1999.90;999.90;;;17.00;99.90;;;;;;4962647;28;20027;-75
2022/05/10 06:34:40;;;;;;;1999.90;999.90;;;17.00;99.90;;;;;;4953940;29;20031;-75
2022/05/10 06:38:16;;;;;;;1999.90;999.90;;;17.10;99.90;;;;;;4953629;28;20020;-82
2022/05/10 06:39:51;;;;;;;1999.90;999.90;;;17.10;99.90;;;;;;4946591;28;20038;-75
2022/05/10 06:42:22;;;;;;;1999.90;999.90;;;17.10;99.90;;;;;;4942602;28;20035;-75
2022/05/10 06:44:47;;;;;;;1999.90;999.90;;;17.20;99.90;;;;;;4952541;29;20647;-75
2022/05/10 06:47:13;;;;;;;1999.90;999.90;;;17.30;99.90;;;;;;4960161;28;20034;-75
2022/05/10 06:49:39;;;;;;;1999.90;999.90;;;17.40;99.90;;;;;;4951534;28;20081;-76
2022/05/10 06:52:04;;;;;;;1999.90;999.90;;;17.50;99.90;;;;;;4953461;29;20106;-81
2022/05/10 06:54:30;;;;;;;1999.90;999.90;;;17.60;99.90;;;;;;4950172;28;20483;-82
2022/05/10 06:56:55;;;;;;;1999.90;999.90;;;17.60;99.90;;;;;;4953255;29;20080;-75
2022/05/10 06:59:21;;;;;;;1999.90;999.90;;;17.80;99.90;;;;;;4953645;29;20039;-75
2022/05/10 07:01:47;;;;;;;1999.90;999.90;;;17.90;99.90;;;;;;4947005;29;20028;-75
2022/05/10 07:04:12;;;;;;;1999.90;999.90;;;18.00;99.90;;;;;;4952598;28;20379;-80
2022/05/10 07:06:38;;;;;;;1999.90;999.90;;;18.10;99.90;;;;;;4951217;29;20031;-75
2022/05/10 07:09:03;;;;;;;1999.90;999.90;;;18.30;99.90;;;;;;4952015;28;20412;-75
2022/05/10 07:11:29;;;;;;;1999.90;999.90;;;18.40;99.90;;;;;;4950530;28;20038;-75
2022/05/10 07:13:55;;;;;;;1999.90;999.90;;;18.60;99.90;;;;;;4945531;28;20043;-75
2022/05/10 07:16:20;;;;;;;1999.90;999.90;;;18.80;99.90;;;;;;4950899;29;20027;-75
2022/05/10 07:18:46;;;;;;;1999.90;999.90;;;18.90;99.90;;;;;;4950014;29;20470;-81
2022/05/10 07:21:12;;;;;;;1999.90;999.90;;;18.90;99.90;;;;;;4950362;28;20058;-82
2022/05/10 07:23:37;;;;;;;1999.90;999.90;;;18.90;99.90;;;;;;4955144;29;20106;-76
2022/05/10 07:26:04;;;;;;;1999.90;999.90;;;19.00;99.90;;;;;;4971126;28;20023;-75
2022/05/10 07:28:30;;;;;;;1999.90;999.90;;;19.20;99.90;;;;;;4971270;28;20030;-76
2022/05/10 07:30:59;;;;;;;1999.90;999.90;;;19.30;99.90;;;;;;4973437;28;20038;-83
2022/05/10 07:33:27;;;;;;;1999.90;999.90;;;19.50;99.90;;;;;;4973571;28;20055;-77
2022/05/10 07:38:38;;;;;;;1999.90;999.90;;;19.80;99.90;;;;;;4977128;29;20055;-75
2022/05/10 07:41:04;;;;;;;1999.90;999.90;;;19.90;99.90;;;;;;4975458;28;20039;-77
2022/05/10 07:43:34;;;;;;;1999.90;999.90;;;20.00;99.90;;;;;;4961129;29;20028;-82
2022/05/10 07:46:00;;;;;;;1999.90;999.90;;;20.70;99.90;;;;;;4952382;28;20027;-77
2022/05/10 07:48:25;;;;;;;1999.90;999.90;;;21.20;99.90;;;;;;4951113;29;20517;-82
2022/05/10 07:50:51;;;;;;;1999.90;999.90;;;21.80;99.90;;;;;;4950183;29;20114;-76
2022/05/10 07:53:17;;;;;;;1999.90;999.90;;;22.80;99.30;;;;;;4951572;29;20071;-75
2022/05/10 07:55:44;;;;;;;1999.90;999.90;;;23.40;98.20;;;;;;4949671;29;20086;-84
2022/05/10 07:58:10;;;;;;;1999.90;999.90;;;24.00;96.60;;;;;;4950555;29;20027;-79
2022/05/10 08:00:38;;;;;;;1999.90;999.90;;;24.30;95.80;;;;;;4949460;28;20182;-74
2022/05/10 08:03:10;;;;;;;1999.90;999.90;;;24.40;95.80;;;;;;4949727;29;20122;-76
2022/05/10 08:05:35;;;;;;;1999.90;999.90;;;24.80;94.90;;;;;;4946075;28;20129;-75
2022/05/10 08:08:01;;;;;;;1999.90;999.90;;;25.20;94.40;;;;;;4946805;28;20031;-75
2022/05/10 08:10:27;;;;;;;1999.90;999.90;;;25.50;93.80;;;;;;4945779;28;20031;-81
2022/05/10 08:12:52;;;;;;;1999.90;999.90;;;25.80;93.90;;;;;;4946621;28;20170;-73
2022/05/10 08:15:20;;;;;;;1999.90;999.90;;;26.20;92.80;;;;;;4948227;29;20035;-72
2022/05/10 08:17:45;;;;;;;1999.90;999.90;;;25.80;92.80;;;;;;4947799;28;20031;-74
2022/05/10 08:20:11;;;;;;;1999.90;999.90;;;25.70;93.00;;;;;;4950441;29;20042;-74
2022/05/10 08:22:37;;;;;;;1999.90;999.90;;;26.00;92.20;;;;;;4951409;29;20039;-77
2022/05/10 08:25:03;;;;;;;1999.90;999.90;;;26.90;91.80;;;;;;4950839;29;20035;-77
2022/05/10 08:27:29;;;;;;;1999.90;999.90;;;27.90;90.50;;;;;;4950970;28;20047;-74
2022/05/10 08:29:54;;;;;;;1999.90;999.90;;;28.60;89.50;;;;;;4949279;29;20031;-74
2022/05/10 08:32:20;;;;;;;1999.90;999.90;;;29.10;88.70;;;;;;4948936;29;20027;-76
2022/05/10 08:34:46;;;;;;;1999.90;999.90;;;28.90;86.70;;;;;;4946875;29;20118;-80
2022/05/10 08:37:11;;;;;;;1999.90;999.90;;;29.20;87.00;;;;;;4950577;29;20147;-79
2022/05/10 08:39:37;;;;;;;1999.90;999.90;;;29.20;86.00;;;;;;4946623;29;20036;-73
2022/05/10 08:42:32;;;;;;;1999.90;999.90;;;28.80;85.40;;;;;;4952120;28;20032;-75
2022/05/10 08:45:07;;;;;;;1999.90;999.90;;;28.90;85.70;;;;;;4962155;29;20039;-72
2022/05/10 08:47:35;;;;;;;1999.90;999.90;;;29.20;85.40;;;;;;4949683;28;20028;-78
2022/05/10 08:50:05;;;;;;;1999.90;999.90;;;28.80;85.40;;;;;;4948829;28;20123;-78
2022/05/10 08:52:35;;;;;;;1999.90;999.90;;;29.00;84.50;;;;;;4942356;28;20044;-74
2022/05/10 08:55:02;;;;;;;1999.90;999.90;;;29.30;84.30;;;;;;4953738;28;20022;-74
2022/05/10 08:57:37;;;;;;;1999.90;999.90;;;29.20;83.70;;;;;;4954052;29;20038;-74
2022/05/10 09:00:11;;;;;;;1999.90;999.90;;;28.90;85.10;;;;;;4954845;28;20027;-73
2022/05/10 09:02:37;;;;;;;1999.90;999.90;;;28.60;86.00;;;;;;4955542;29;20027;-78
2022/05/10 09:05:21;;;;;;;1999.90;999.90;;;29.50;85.20;;;;;;4955086;28;20054;-75
2022/05/10 09:08:01;;;;;;;1999.90;999.90;;;29.90;84.80;;;;;;4953319;29;20110;-75
2022/05/10 09:10:43;;;;;;;1999.90;999.90;;;30.80;83.10;;;;;;4954426;28;20027;-76
2022/05/10 09:13:11;;;;;;;;;;;31.00;83.00;;;;;;4949588;28;20050;-75
2022/05/10 09:15:46;;;;;;;1999.90;999.90;;;31.00;82.50;;;;;;4943237;28;19914;-78
2022/05/10 09:18:46;;;;;;;1999.90;999.90;;;30.40;82.40;;;;;;4949873;29;20455;-74
2022/05/10 09:21:19;;;;;;;1999.90;999.90;;;30.80;83.10;;;;;;4945892;28;20050;-77
2022/05/10 09:24:06;;;;;;;1999.90;999.90;;;30.60;82.70;;;;;;4950327;28;20027;-74
2022/05/10 09:26:36;;;;;;;1999.90;999.90;;;30.90;82.90;;;;;;4948841;28;20094;-79
2022/05/10 09:29:30;;;;;;;1999.90;999.90;;;31.10;82.20;;;;;;4950514;28;20035;-75
2022/05/10 09:34:53;;;;;;;1999.90;999.90;;;31.10;81.80;;;;;;4952964;28;20118;-75
2022/05/10 09:37:33;;;;;;;1999.90;999.90;;;30.70;81.20;;;;;;4951029;28;20047;-74
2022/05/10 09:39:58;;;;;;;1999.90;999.90;;;31.20;82.10;;;;;;4952146;28;20059;-80
2022/05/10 09:42:27;;;;;;;1999.90;999.90;;;31.20;82.00;;;;;;4954598;28;20067;-78
2022/05/10 09:45:04;;;;;;;1999.90;999.90;;;30.50;81.10;;;;;;4954466;28;20082;-73
2022/05/10 09:47:31;;;;;;;1999.90;999.90;;;30.10;81.40;;;;;;4951440;29;20039;-72
2022/05/10 09:50:11;;;;;;;1999.90;999.90;;;30.10;82.30;;;;;;4954745;29;20034;-73
2022/05/10 09:52:36;;;;;;;1999.90;999.90;;;30.20;81.40;;;;;;4953829;28;20379;-74
2022/05/10 09:55:07;;;;;;;1999.90;999.90;;;30.10;80.90;;;;;;4953734;28;20023;-73
2022/05/10 09:57:37;;;;;;;1999.90;999.90;;;29.80;80.10;;;;;;4954044;29;20034;-74
2022/05/10 10:00:05;;;;;;;1999.90;999.90;;;29.90;81.70;;;;;;4953202;29;20031;-73
2022/05/10 10:02:39;;;;;;;1999.90;999.90;;;29.80;80.30;;;;;;4953918;28;20043;-73
2022/05/10 10:05:17;;;;;;;1999.90;999.90;;;30.30;80.70;;;;;;4951713;28;20046;-73
2022/05/10 10:07:51;;;;;;;1999.90;999.90;;;30.70;78.90;;;;;;4944590;28;20398;-74
2022/05/10 10:10:37;;;;;;;1999.90;999.90;;;30.60;77.80;;;;;;4945634;29;20038;-73
2022/05/10 10:13:33;;;;;;;1999.90;999.90;;;30.80;78.50;;;;;;4948353;28;20583;-74
2022/05/10 10:16:00;;;;;;;1999.90;999.90;;;30.90;78.10;;;;;;4928223;28;20040;-74
2022/05/10 10:18:48;;;;;;;1999.90;999.90;;;31.30;77.80;;;;;;4942578;28;20027;-74
2022/05/10 10:21:46;;;;;;;1999.90;999.90;;;31.90;76.50;;;;;;4943167;28;20061;-76
2022/05/10 10:24:27;;;;;;;1999.90;999.90;;;31.70;76.80;;;;;;4940090;28;20038;-75
2022/05/10 10:27:02;;;;;;;1999.90;999.90;;;31.00;75.40;;;;;;4943281;28;20048;-75
2022/05/10 10:30:00;;;;;;;1999.90;999.90;;;30.70;77.20;;;;;;4936228;28;20259;-74
2022/05/10 10:32:33;;;;;;;1999.90;999.90;;;30.40;75.80;;;;;;4940933;28;20030;-76
2022/05/10 10:35:17;;;;;;;1999.90;999.90;;;30.80;76.80;;;;;;4935207;28;20027;-75
2022/05/10 10:38:22;;;;;;;1999.90;999.90;;;31.30;75.40;;;;;;4942570;28;20550;-74
2022/05/10 10:40:55;;;;;;;1999.90;999.90;;;30.80;75.50;;;;;;4940356;28;20047;-74
2022/05/10 10:43:55;;;;;;;1999.90;999.90;;;30.80;75.60;;;;;;4945298;28;20031;-75
2022/05/10 10:46:30;;;;;;;1999.90;999.90;;;31.00;76.60;;;;;;4939101;28;20095;-75
2022/05/10 10:49:17;;;;;;;1999.90;999.90;;;30.50;75.20;;;;;;4942687;29;20020;-74
2022/05/10 10:51:42;;;;;;;1999.90;999.90;;;30.50;74.80;;;;;;4939249;28;20456;-74
2022/05/10 10:54:17;;;;;;;1999.90;999.90;;;30.70;75.50;;;;;;4938079;28;20075;-75
2022/05/10 10:56:48;;;;;;;1999.90;999.90;;;31.00;75.90;;;;;;4944167;28;20499;-74
2022/05/10 10:59:41;;;;;;;1999.90;999.90;;;30.80;74.50;;;;;;4943587;28;20035;-74
2022/05/10 11:02:26;;;;;;;1999.90;999.90;;;30.70;73.80;;;;;;4948803;28;20039;-76
2022/05/10 11:05:25;;;;;;;1999.90;999.90;;;30.80;74.00;;;;;;4948098;28;20031;-74
2022/05/10 11:08:26;;;;;;;1999.90;999.90;;;30.70;72.80;;;;;;4933634;28;20427;-74
2022/05/10 11:11:06;;;;;;;1999.90;999.90;;;30.60;72.60;;;;;;4936857;28;20027;-74
2022/05/10 11:13:53;;;;;;;1999.90;999.90;;;30.90;73.40;;;;;;4932985;28;20555;-75
2022/05/10 11:16:42;;;;;;;1999.90;999.90;;;31.20;72.50;;;;;;4939505;28;20039;-77
2022/05/10 11:19:32;;;;;;;1999.90;999.90;;;30.90;72.40;;;;;;4946531;29;20031;-76
2022/05/10 11:22:19;;;;;;;1999.90;999.90;;;30.70;72.90;;;;;;4950818;28;20063;-76
2022/05/10 11:24:58;;;;;;;1999.90;999.90;;;30.90;73.60;;;;;;4948465;29;20031;-82
2022/05/10 11:28:01;;;;;;;1999.90;999.90;;;30.90;72.90;;;;;;4949591;28;20023;-81
2022/05/10 11:30:36;;;;;;;1999.90;999.90;;;31.20;72.30;;;;;;4947341;29;20170;-75
2022/05/10 11:33:07;;;;;;;1999.90;999.90;;;30.60;71.80;;;;;;4945865;29;20433;-76
2022/05/10 11:35:48;;;;;;;1999.90;999.90;;;30.60;72.20;;;;;;4947019;29;20410;-75
2022/05/10 11:38:34;;;;;;;1999.90;999.90;;;30.50;73.30;;;;;;4951962;28;20035;-75
2022/05/10 11:41:29;;;;;;;1999.90;999.90;;;30.10;72.10;;;;;;4948849;29;20046;-75
2022/05/10 11:44:03;;;;;;;1999.90;999.90;;;29.00;74.30;;;;;;4937963;28;20054;-75
2022/05/10 11:46:57;;;;;;;1999.90;999.90;;;28.50;75.20;;;;;;4951807;28;20101;-75
2022/05/10 11:50:09;;;;;;;1999.90;999.90;;;28.20;76.00;;;;;;4949064;29;20031;-75
2022/05/10 11:52:38;;;;;;;1999.90;999.90;;;27.80;76.60;;;;;;4939970;28;20050;-77
2022/05/10 11:55:21;;;;;;;1999.90;999.90;;;28.00;76.60;;;;;;4950381;29;20543;-75
2022/05/10 11:57:49;;;;;;;1999.90;999.90;;;28.10;76.60;;;;;;4950928;29;20086;-75
2022/05/10 12:00:26;;;;;;;1999.90;999.90;;;27.90;76.30;;;;;;4943313;28;20042;-76
2022/05/10 12:02:53;;;;;;;1999.90;999.90;;;28.10;75.70;;;;;;4948663;28;20033;-77
2022/05/10 12:05:23;;;;;;;1999.90;999.90;;;28.50;75.00;;;;;;4947900;28;20027;-77
2022/05/10 12:07:53;;;;;;;1999.90;999.90;;;29.10;75.20;;;;;;4947982;29;20103;-75
2022/05/10 12:10:22;;;;;;;1999.90;999.90;;;28.80;75.40;;;;;;4950285;29;20074;-75
2022/05/10 12:12:47;;;;;;;1999.90;999.90;;;28.60;75.00;;;;;;4951255;28;20046;-78
2022/05/10 12:21:28;;;;;;;1999.90;999.90;;;28.40;76.30;;;;;;4950947;29;20050;-75
2022/05/10 12:24:19;;;;;;;1999.90;999.90;;;28.70;76.00;;;;;;4941241;29;20031;-75
2022/05/10 12:26:55;;;;;;;1999.90;999.90;;;28.60;76.20;;;;;;4952522;28;20031;-74
2022/05/10 12:29:39;;;;;;;1999.90;999.90;;;28.60;74.80;;;;;;4952567;28;20027;-77
2022/05/10 12:32:05;;;;;;;1999.90;999.90;;;28.10;75.60;;;;;;4944833;28;20039;-76
2022/05/10 12:34:52;;;;;;;1999.90;999.90;;;27.80;75.60;;;;;;4951334;29;20544;-74
2022/05/10 12:37:33;;;;;;;1999.90;999.90;;;27.40;75.50;;;;;;4952056;28;20067;-75
2022/05/10 12:40:04;;;;;;;1999.90;999.90;;;27.20;76.50;;;;;;4948776;29;20065;-75
2022/05/10 12:43:07;;;;;;;1999.90;999.90;;;27.40;77.00;;;;;;4947648;29;20093;-75
2022/05/10 12:45:55;;;;;;;;;;;27.30;77.50;;;;;;4948763;28;20129;-75